createdAt,value
2018-06-09T00:01:07.591Z,22.55
2018-06-09T00:03:37.979Z,22.49
2018-06-09T00:06:07.831Z,22.40
2018-06-09T00:08:37.580Z,22.30
2018-06-09T00:11:07.386Z,22.18
2018-06-09T00:13:37.318Z,22.13
2018-06-09T00:16:07.459Z,22.08
2018-06-09T00:18:37.415Z,22.09
2018-06-09T00:21:07.266Z,22.16
2018-06-09T00:23:37.305Z,22.13
2018-06-09T00:26:07.521Z,22.11
2018-06-09T00:28:37.216Z,22.05
2018-06-09T00:31:08.447Z,22.12
2018-06-09T00:33:37.896Z,22.21
2018-06-09T00:36:07.323Z,21.86
2018-06-09T00:38:37.187Z,21.96
2018-06-09T00:41:06.822Z,21.95
2018-06-09T00:43:37.237Z,22.11
2018-06-09T00:46:07.486Z,21.86
2018-06-09T00:48:37.521Z,22.02
2018-06-09T00:51:08.097Z,22.58
2018-06-09T00:53:38.065Z,22.51
2018-06-09T00:59:04.053Z,22.59
2018-06-09T01:01:35.145Z,22.54
2018-06-09T01:04:07.528Z,22.31
2018-06-09T01:06:37.943Z,22.60
2018-06-09T01:09:11.163Z,22.64
2018-06-09T01:11:40.698Z,21.97
2018-06-09T01:14:10.566Z,21.94
2018-06-09T01:16:40.414Z,21.80
2018-06-09T01:19:14.130Z,21.89
2018-06-09T01:24:32.619Z,22.10
2018-06-09T01:27:05.151Z,22.30
2018-06-09T01:29:36.568Z,22.01
2018-06-09T01:32:06.904Z,22.16
2018-06-09T01:34:36.931Z,22.15
2018-06-09T01:37:07.371Z,21.85
2018-06-09T01:39:37.017Z,21.69
2018-06-09T01:42:07.516Z,21.52
2018-06-09T01:44:37.654Z,21.61
2018-06-09T01:47:07.776Z,21.55
2018-06-09T01:49:37.415Z,21.48
2018-06-09T01:52:08.096Z,21.54
2018-06-09T01:54:38.323Z,21.59
2018-06-09T01:57:07.877Z,21.29
2018-06-09T01:59:38.974Z,21.37
2018-06-09T02:02:08.768Z,21.26
2018-06-09T02:04:38.779Z,21.10
2018-06-09T02:07:09.009Z,21.73
2018-06-09T02:09:38.348Z,22.03
2018-06-09T02:12:08.058Z,22.02
2018-06-09T02:14:39.498Z,21.78
2018-06-09T02:17:09.427Z,21.42
2018-06-09T02:19:39.254Z,21.22
2018-06-09T02:22:09.121Z,21.21
2018-06-09T02:24:38.844Z,21.42
2018-06-09T02:27:08.288Z,21.74
2018-06-09T02:29:37.811Z,22.03
2018-06-09T02:32:08.542Z,21.51
2018-06-09T02:34:38.070Z,21.29
2018-06-09T02:37:08.064Z,20.95
2018-06-09T02:39:38.007Z,20.82
2018-06-09T02:42:07.604Z,20.72
2018-06-09T02:44:37.474Z,20.21
2018-06-09T02:47:07.221Z,19.95
2018-06-09T02:49:37.056Z,19.88
2018-06-09T02:52:06.902Z,19.99
2018-06-09T02:54:37.353Z,20.43
2018-06-09T02:57:07.983Z,20.16
2018-06-09T02:59:37.660Z,20.05
2018-06-09T03:02:07.647Z,20.16
2018-06-09T03:04:37.395Z,20.18
2018-06-09T03:07:07.186Z,20.15
2018-06-09T03:09:37.012Z,20.25
2018-06-09T03:12:07.185Z,20.17
2018-06-09T03:14:36.589Z,20.17
2018-06-09T03:17:06.537Z,20.06
2018-06-09T03:19:35.786Z,19.95
2018-06-09T03:22:05.637Z,20.21
2018-06-09T03:24:35.904Z,20.01
2018-06-09T03:27:06.347Z,20.26
2018-06-09T03:29:37.286Z,20.23
2018-06-09T03:32:06.634Z,20.32
2018-06-09T03:34:38.092Z,20.28
2018-06-09T03:37:07.640Z,20.24
2018-06-09T03:39:37.388Z,20.24
2018-06-09T03:42:07.210Z,20.25
2018-06-09T03:44:36.959Z,20.23
2018-06-09T03:47:06.790Z,20.12
2018-06-09T03:49:36.568Z,19.86
2018-06-09T03:52:06.672Z,19.71
2018-06-09T03:54:36.737Z,19.77
2018-06-09T03:57:07.221Z,19.76
2018-06-09T03:59:36.583Z,19.67
2018-06-09T04:02:06.160Z,19.96
2018-06-09T04:04:35.740Z,20.10
2018-06-09T04:07:05.473Z,20.50
2018-06-09T04:09:35.287Z,20.63
2018-06-09T04:12:05.335Z,20.40
2018-06-09T04:14:35.805Z,20.48
2018-06-09T04:17:05.684Z,20.55
2018-06-09T04:19:35.844Z,20.56
2018-06-09T04:22:06.630Z,20.56
2018-06-09T04:24:36.482Z,20.68
2018-06-09T04:27:06.174Z,20.55
2018-06-09T04:29:36.945Z,20.66
2018-06-09T04:32:07.235Z,21.36
2018-06-09T04:34:37.446Z,20.95
2018-06-09T04:37:08.747Z,21.08
2018-06-09T04:39:38.287Z,20.86
2018-06-09T04:42:07.466Z,20.80
2018-06-09T04:44:36.598Z,20.83
2018-06-09T04:47:06.939Z,20.81
2018-06-09T04:49:36.910Z,20.71
2018-06-09T04:52:07.272Z,20.85
2018-06-09T04:54:37.099Z,20.78
2018-06-09T04:57:06.712Z,20.65
2018-06-09T04:59:36.449Z,21.54
2018-06-09T05:02:06.845Z,21.71
2018-06-09T05:04:36.848Z,21.29
2018-06-09T05:07:08.493Z,21.23
2018-06-09T05:09:39.839Z,21.12
2018-06-09T05:12:09.603Z,20.99
2018-06-09T05:14:39.442Z,21.19
2018-06-09T05:17:10.064Z,21.16
2018-06-09T05:19:39.544Z,21.06
2018-06-09T05:22:08.961Z,21.20
2018-06-09T05:24:38.593Z,21.41
2018-06-09T05:27:08.063Z,21.51
2018-06-09T05:29:37.698Z,21.73
2018-06-09T05:32:07.395Z,21.71
2018-06-09T05:34:37.523Z,21.86
2018-06-09T05:37:07.327Z,21.82
2018-06-09T05:39:36.694Z,22.05
2018-06-09T05:42:06.393Z,22.73
2018-06-09T05:44:36.755Z,22.82
2018-06-09T05:47:07.137Z,23.01
2018-06-09T05:49:38.277Z,23.52
2018-06-09T05:52:08.936Z,23.69
2018-06-09T05:54:38.766Z,24.16
2018-06-09T05:57:08.689Z,24.47
2018-06-09T05:59:38.061Z,24.46
2018-06-09T06:02:07.570Z,24.33
2018-06-09T06:04:37.167Z,24.67
2018-06-09T06:07:09.753Z,24.85
2018-06-09T06:09:39.148Z,25.04
2018-06-09T06:12:08.858Z,25.27
2018-06-09T06:14:38.368Z,25.24
2018-06-09T06:17:07.435Z,25.38
2018-06-09T06:19:36.500Z,25.54
2018-06-09T06:22:06.160Z,25.50
2018-06-09T06:24:36.238Z,25.31
2018-06-09T06:27:05.403Z,25.43
2018-06-09T06:29:34.752Z,25.00
2018-06-09T06:32:04.888Z,24.84
2018-06-09T06:34:33.990Z,24.72
2018-06-09T06:37:04.909Z,25.09
2018-06-09T06:39:34.948Z,24.88
2018-06-09T06:42:04.420Z,24.56
2018-06-09T06:44:39.023Z,24.60
2018-06-09T06:47:08.531Z,24.23
2018-06-09T06:49:38.778Z,24.81
2018-06-09T06:52:08.655Z,24.68
2018-06-09T06:54:47.001Z,24.88
2018-06-09T07:02:32.821Z,24.45
2018-06-09T07:05:04.923Z,23.94
2018-06-09T07:07:36.673Z,24.30
2018-06-09T07:10:06.954Z,24.27
2018-06-09T07:12:36.507Z,24.31
2018-06-09T07:15:11.356Z,24.21
2018-06-09T07:17:42.508Z,24.45
2018-06-09T07:20:11.299Z,24.22
2018-06-09T07:22:40.429Z,24.49
2018-06-09T07:25:09.435Z,24.46
2018-06-09T07:27:39.368Z,24.70
2018-06-09T07:30:36.498Z,24.71
2018-06-09T07:36:00.178Z,25.62
2018-06-09T07:38:33.730Z,25.91
2018-06-09T07:41:06.777Z,25.48
2018-06-09T07:43:40.746Z,25.85
2018-06-09T07:46:10.918Z,26.13
2018-06-09T07:48:40.822Z,26.07
2018-06-09T07:51:10.633Z,26.33
2018-06-09T07:53:42.792Z,26.82
2018-06-09T08:04:42.255Z,26.44
2018-06-09T08:07:15.071Z,26.76
2018-06-09T08:09:44.616Z,26.64
2018-06-09T08:12:14.206Z,26.49
2018-06-09T08:14:51.303Z,26.17
2018-06-09T08:17:29.914Z,27.02
2018-06-09T08:20:07.707Z,26.32
2018-06-09T08:22:42.515Z,27.04
2018-06-09T08:25:13.021Z,27.12
2018-06-09T08:27:42.553Z,27.43
2018-06-09T08:30:12.153Z,27.55
2018-06-09T08:32:41.553Z,27.45
2018-06-09T08:35:12.038Z,27.48
2018-06-09T08:37:42.537Z,27.27
2018-06-09T08:40:11.838Z,27.65
2018-06-09T08:42:43.649Z,27.90
2018-06-09T08:45:33.637Z,27.41
2018-06-09T08:48:06.473Z,28.05
2018-06-09T08:50:38.119Z,27.75
2018-06-09T08:53:08.015Z,27.99
2018-06-09T08:55:38.338Z,28.00
2018-06-09T08:58:07.896Z,27.59
2018-06-09T09:00:40.030Z,26.92
2018-06-09T09:03:09.733Z,27.34
2018-06-09T09:05:40.847Z,27.43
2018-06-09T09:08:11.122Z,27.82
2018-06-09T09:13:35.016Z,27.98
2018-06-09T09:16:09.391Z,27.96
2018-06-09T09:18:39.473Z,28.13
2018-06-09T09:21:11.248Z,28.32
2018-06-09T09:23:41.495Z,27.72
2018-06-09T09:27:39.483Z,28.50
2018-06-09T09:30:10.797Z,28.32
2018-06-09T09:32:41.614Z,28.73
2018-06-09T09:35:11.996Z,28.86
2018-06-09T09:37:43.096Z,29.13
2018-06-09T09:40:13.326Z,29.28
2018-06-09T09:42:44.424Z,28.57
2018-06-09T09:45:16.506Z,28.48
2018-06-09T09:48:01.847Z,29.19
2018-06-09T09:50:35.076Z,28.75
2018-06-09T09:53:05.356Z,28.49
2018-06-09T09:55:38.738Z,29.07
2018-06-09T09:58:08.085Z,28.86
2018-06-09T10:00:55.888Z,29.08
2018-06-09T10:03:32.610Z,29.27
2018-06-09T10:06:03.389Z,29.89
2018-06-09T10:08:32.737Z,29.13
2018-06-09T10:11:03.646Z,29.56
2018-06-09T10:13:35.377Z,30.18
2018-06-09T10:16:06.577Z,29.74
2018-06-09T10:18:36.828Z,30.05
2018-06-09T10:21:06.297Z,29.90
2018-06-09T10:23:38.057Z,30.08
2018-06-09T10:26:07.570Z,30.02
2018-06-09T10:31:35.332Z,30.38
2018-06-09T10:34:07.153Z,30.73
2018-06-09T10:36:37.152Z,30.70
2018-06-09T10:39:09.704Z,30.67
2018-06-09T10:41:40.613Z,30.75
2018-06-09T10:44:10.755Z,30.62
2018-06-09T10:49:38.093Z,30.18
2018-06-09T10:52:11.413Z,29.84
2018-06-09T11:00:31.464Z,29.16
2018-06-09T11:03:03.570Z,29.91
2018-06-09T11:05:35.157Z,30.03
2018-06-09T11:08:06.327Z,29.72
2018-06-09T11:10:39.655Z,30.28
2018-06-09T11:13:32.498Z,30.29
2018-06-09T11:16:38.846Z,30.16
2018-06-09T11:19:09.834Z,30.24
2018-06-09T11:29:29.983Z,29.44
2018-06-09T11:32:03.666Z,30.23
2018-06-09T11:34:39.389Z,30.56
2018-06-09T11:40:10.880Z,30.12
2018-06-09T11:43:09.709Z,30.04
2018-06-09T11:45:40.132Z,30.07
2018-06-09T11:53:51.951Z,29.67
2018-06-09T11:56:37.244Z,29.62
2018-06-09T11:59:09.133Z,30.74
2018-06-09T12:04:37.781Z,30.10
2018-06-09T12:07:08.062Z,30.03
2018-06-09T12:09:43.454Z,29.99
2018-06-09T12:12:14.222Z,30.73
2018-06-09T12:15:03.823Z,30.60
2018-06-09T12:28:03.347Z,30.45
2018-06-09T12:30:34.715Z,30.74
2018-06-09T12:33:10.155Z,30.98
2018-06-09T12:35:42.084Z,31.08
2018-06-09T12:38:11.975Z,30.84
2018-06-09T12:40:44.308Z,30.84
2018-06-09T12:43:14.048Z,31.40
2018-06-09T12:45:46.437Z,31.04
2018-06-09T12:48:18.758Z,30.49
2018-06-09T12:50:50.728Z,30.98
2018-06-09T12:53:22.636Z,30.57
2018-06-09T12:55:59.160Z,30.93
2018-06-09T12:58:29.149Z,30.77
2018-06-09T13:00:58.257Z,31.31
2018-06-09T13:03:34.774Z,30.63
2018-06-09T13:06:11.119Z,31.53
2018-06-09T13:08:48.945Z,31.16
2018-06-09T13:11:21.620Z,31.31
2018-06-09T13:13:56.900Z,31.07
2018-06-09T13:16:29.781Z,31.15
2018-06-09T13:19:04.331Z,31.00
2018-06-09T13:21:35.273Z,31.21
2018-06-09T13:24:08.840Z,30.72
2018-06-09T13:26:38.612Z,30.76
2018-06-09T13:29:14.664Z,31.48
2018-06-09T13:31:44.407Z,31.82
2018-06-09T13:34:14.340Z,32.12
2018-06-09T13:36:43.711Z,31.90
2018-06-09T13:39:13.192Z,31.79
2018-06-09T13:42:03.560Z,32.03
2018-06-09T13:44:38.311Z,31.39
2018-06-09T13:47:10.176Z,31.76
2018-06-09T13:49:44.777Z,31.20
2018-06-09T13:52:33.060Z,31.49
2018-06-09T13:55:07.715Z,31.71
2018-06-09T13:57:42.693Z,31.65
2018-06-09T14:00:14.247Z,31.35
2018-06-09T14:02:43.755Z,31.59
2018-06-09T14:05:12.951Z,31.66
2018-06-09T14:07:43.175Z,31.36
2018-06-09T14:10:13.536Z,30.98
2018-06-09T14:12:46.021Z,30.38
2018-06-09T14:15:22.100Z,30.06
2018-06-09T14:17:58.041Z,30.07
2018-06-09T14:20:32.344Z,29.91
2018-06-09T14:23:03.020Z,29.54
2018-06-09T14:25:32.851Z,29.67
2018-06-09T14:28:04.271Z,29.54
2018-06-09T14:30:33.887Z,29.37
2018-06-09T14:33:05.661Z,29.00
2018-06-09T14:35:35.651Z,29.10
2018-06-09T14:38:05.311Z,29.10
2018-06-09T14:40:37.413Z,29.17
2018-06-09T14:43:08.116Z,29.24
2018-06-09T14:45:37.684Z,29.20
2018-06-09T14:48:07.492Z,28.78
2018-06-09T14:50:38.104Z,29.17
2018-06-09T14:53:07.816Z,28.83
2018-06-09T14:55:41.232Z,28.98
2018-06-09T14:58:10.543Z,28.96
2018-06-09T15:00:40.384Z,29.09
2018-06-09T15:03:10.329Z,28.69
2018-06-09T15:05:40.525Z,28.91
2018-06-09T15:08:11.477Z,28.80
2018-06-09T15:10:41.278Z,28.54
2018-06-09T15:13:10.652Z,28.11
2018-06-09T15:15:40.577Z,28.24
2018-06-09T15:18:17.889Z,28.47
2018-06-09T15:20:59.472Z,28.10
2018-06-09T15:23:28.889Z,28.11
2018-06-09T15:26:00.248Z,28.34
2018-06-09T15:28:33.446Z,28.32
2018-06-09T15:31:04.128Z,28.15
2018-06-09T15:33:33.650Z,28.01
2018-06-09T15:36:05.949Z,27.79
2018-06-09T15:38:37.402Z,27.72
2018-06-09T15:41:06.719Z,27.80
2018-06-09T15:43:38.458Z,27.59
2018-06-09T15:46:08.071Z,27.68
2018-06-09T15:48:38.944Z,27.53
2018-06-09T15:51:13.545Z,27.68
2018-06-09T15:53:44.302Z,27.48
2018-06-09T15:56:14.092Z,27.48
2018-06-09T15:58:42.932Z,27.78
2018-06-09T16:01:12.116Z,27.85
2018-06-09T16:03:41.487Z,27.96
2018-06-09T16:06:34.513Z,27.92
2018-06-09T16:09:05.516Z,27.86
2018-06-09T16:11:35.451Z,27.88
2018-06-09T16:14:06.204Z,27.67
2018-06-09T16:16:37.187Z,27.82
2018-06-09T16:19:07.784Z,27.86
2018-06-09T16:21:38.104Z,27.65
2018-06-09T16:24:06.987Z,27.62
2018-06-09T16:26:36.835Z,27.50
2018-06-09T16:29:07.803Z,27.45
2018-06-09T16:31:37.237Z,27.39
2018-06-09T16:34:06.238Z,27.51
2018-06-09T16:36:40.030Z,27.36
2018-06-09T16:39:18.617Z,27.53
2018-06-09T16:41:52.610Z,27.33
2018-06-09T16:44:23.564Z,27.42
2018-06-09T16:47:00.810Z,27.39
2018-06-09T16:49:33.690Z,27.28
2018-06-09T16:52:03.449Z,27.36
2018-06-09T16:54:33.279Z,26.98
2018-06-09T16:57:02.700Z,27.08
2018-06-09T16:59:33.460Z,27.02
2018-06-09T17:02:05.458Z,27.05
2018-06-09T17:04:39.646Z,27.42
2018-06-09T17:07:30.360Z,27.14
2018-06-09T17:10:02.448Z,27.01
2018-06-09T17:12:33.533Z,27.50
2018-06-09T17:15:04.062Z,27.54
2018-06-09T17:17:33.442Z,27.27
2018-06-09T17:20:04.054Z,27.28
2018-06-09T17:22:33.702Z,27.09
2018-06-09T17:25:03.450Z,26.80
2018-06-09T17:27:33.396Z,27.44
2018-06-09T17:30:02.808Z,27.11
2018-06-09T17:32:32.674Z,27.23
2018-06-09T17:35:02.073Z,26.97
2018-06-09T17:37:35.331Z,27.03
2018-06-09T17:40:05.471Z,27.74
2018-06-09T17:42:35.822Z,27.10
2018-06-09T17:45:06.154Z,27.00
2018-06-09T17:47:36.014Z,26.97
2018-06-09T17:50:05.591Z,27.39
2018-06-09T17:52:35.852Z,26.77
2018-06-09T17:55:06.208Z,26.72
2018-06-09T17:57:57.406Z,26.72
2018-06-09T18:00:30.287Z,26.72
2018-06-09T18:03:08.770Z,26.92
2018-06-09T18:08:25.304Z,26.53
2018-06-09T18:11:01.218Z,26.99
2018-06-09T18:13:33.780Z,26.76
2018-06-09T18:16:24.969Z,26.57
2018-06-09T18:19:00.881Z,26.57
2018-06-09T18:21:36.851Z,26.51
2018-06-09T18:24:06.705Z,26.15
2018-06-09T18:26:36.136Z,26.76
2018-06-09T18:29:07.880Z,26.68
2018-06-09T18:31:42.755Z,26.89
2018-06-09T18:34:23.833Z,26.93
2018-06-09T18:36:58.380Z,26.47
2018-06-09T18:39:27.885Z,26.97
2018-06-09T18:41:57.366Z,26.62
2018-06-09T18:44:27.518Z,26.37
2018-06-09T18:47:01.684Z,26.62
2018-06-09T18:49:31.992Z,26.06
2018-06-09T18:52:02.405Z,25.81
2018-06-09T18:54:31.644Z,25.89
2018-06-09T18:57:01.929Z,25.93
2018-06-09T19:02:11.348Z,25.29
2018-06-09T19:04:58.196Z,25.32
2018-06-09T19:07:27.334Z,25.23
2018-06-09T19:09:58.458Z,25.69
2018-06-09T19:12:29.439Z,25.22
2018-06-09T19:14:59.330Z,25.45
2018-06-09T19:17:29.547Z,25.66
2018-06-09T19:20:02.928Z,25.61
2018-06-09T19:22:33.440Z,25.65
2018-06-09T19:25:03.351Z,25.15
2018-06-09T19:27:32.911Z,25.18
2018-06-09T19:30:03.122Z,25.50
2018-06-09T19:32:34.253Z,25.13
2018-06-09T19:35:04.821Z,25.11
2018-06-09T19:37:35.664Z,24.98
2018-06-09T19:40:05.869Z,25.27
2018-06-09T19:42:35.491Z,24.86
2018-06-09T19:45:06.503Z,25.31
2018-06-09T19:47:37.765Z,25.02
2018-06-09T19:50:07.500Z,24.86
2018-06-09T19:52:37.752Z,25.05
2018-06-09T19:55:09.993Z,24.84
2018-06-09T19:57:41.413Z,24.71
2018-06-09T20:00:11.735Z,24.97
2018-06-09T20:02:40.854Z,24.75
2018-06-09T20:05:13.287Z,24.56
2018-06-09T20:07:43.412Z,24.59
2018-06-09T20:13:34.982Z,24.60
2018-06-09T20:16:06.086Z,24.21
2018-06-09T20:18:36.103Z,24.17
2018-06-09T20:21:06.234Z,23.79
2018-06-09T20:23:38.528Z,23.59
2018-06-09T20:26:10.718Z,23.08
2018-06-09T20:31:37.059Z,22.58
2018-06-09T20:34:07.734Z,22.22
2018-06-09T20:36:38.543Z,22.37
2018-06-09T20:39:10.050Z,22.25
2018-06-09T20:41:41.477Z,21.95
2018-06-09T20:44:28.256Z,21.71
2018-06-09T20:47:01.180Z,21.88
2018-06-09T20:49:34.661Z,22.44
2018-06-09T20:52:07.533Z,22.54
2018-06-09T20:54:40.361Z,22.23
2018-06-09T20:57:09.899Z,22.71
2018-06-09T20:59:39.527Z,22.55
2018-06-09T21:02:08.942Z,22.68
2018-06-09T21:04:37.768Z,22.35
2018-06-09T21:07:07.481Z,22.67
2018-06-09T21:09:37.409Z,22.49
2018-06-09T21:14:27.329Z,22.46
2018-06-09T21:19:57.998Z,22.43
2018-06-09T21:22:28.133Z,22.29
2018-06-09T21:25:08.467Z,22.09
2018-06-09T21:27:55.323Z,22.17
2018-06-09T21:30:32.795Z,22.77
2018-06-09T21:33:08.076Z,22.38
2018-06-09T21:35:57.981Z,21.72
2018-06-09T21:38:28.794Z,22.15
2018-06-09T21:41:06.561Z,22.46
2018-06-09T21:43:43.532Z,21.59
2018-06-09T21:46:18.513Z,21.70
2018-06-09T21:48:50.576Z,21.46
2018-06-09T21:51:32.075Z,20.74
2018-06-09T21:54:02.477Z,20.72
2018-06-09T21:56:31.940Z,20.87
2018-06-09T21:59:02.468Z,20.81
2018-06-09T22:01:31.962Z,21.60
2018-06-09T22:04:02.483Z,21.78
2018-06-09T22:06:35.057Z,21.85
2018-06-09T22:09:06.159Z,21.54
2018-06-09T22:11:36.163Z,21.58
2018-06-09T22:14:05.898Z,21.59
2018-06-09T22:16:36.333Z,21.58
2018-06-09T22:19:05.814Z,21.47
2018-06-09T22:24:30.489Z,20.96
2018-06-09T22:27:00.413Z,20.94
2018-06-09T22:29:37.048Z,21.08
2018-06-09T22:32:07.201Z,21.08
2018-06-09T22:34:36.620Z,21.59
2018-06-09T22:37:06.462Z,21.61
2018-06-09T22:39:36.005Z,21.22
2018-06-09T22:42:06.126Z,21.00
2018-06-09T22:44:35.301Z,21.43
2018-06-09T22:47:04.947Z,21.91
2018-06-09T22:49:34.359Z,21.88
2018-06-09T22:52:03.664Z,22.03
2018-06-09T22:54:35.066Z,21.03
2018-06-09T22:57:04.863Z,20.72
2018-06-09T22:59:34.608Z,20.66
2018-06-09T23:02:04.313Z,20.63
2018-06-09T23:04:34.028Z,20.61
2018-06-09T23:07:04.478Z,21.14
2018-06-09T23:09:33.935Z,20.56
2018-06-09T23:12:03.657Z,20.32
2018-06-09T23:14:33.828Z,20.29
2018-06-09T23:17:03.597Z,20.48
2018-06-09T23:19:34.084Z,20.48
2018-06-09T23:22:04.019Z,20.79
2018-06-09T23:24:34.007Z,20.45
2018-06-09T23:27:03.372Z,20.83
2018-06-09T23:29:32.952Z,20.86
2018-06-09T23:32:02.733Z,20.99
2018-06-09T23:34:32.497Z,20.57
2018-06-09T23:37:06.220Z,20.45
2018-06-09T23:39:35.922Z,20.37
2018-06-09T23:45:09.954Z,20.32
2018-06-09T23:47:39.784Z,20.08
2018-06-09T23:50:28.804Z,19.98
2018-06-09T23:52:58.806Z,20.06
2018-06-09T23:55:29.775Z,19.70
2018-06-09T23:58:28.344Z,19.55
